Portada
METAR-TAF:

METAR-TAF

Aeroports :

Amman, Jordània

latitud: 31-59N, longitud: 035-59E, altitud: 767 m

Observació

L'informe es va fer fa 40 minuts, a les 02:00 UTC
Vent calma
Temperatura 6°C
Humitat 93%
Pressió 1019 hPa
Visibilitat: 3000 m
boirina

METAR: OJAM 230200Z 00000KT 3000 BR NSC 06/05 Q1019 NOSIG

Hora: 04:40 (02:40 UTC)

Pronòstic

L'informe es va fer fa 3 hores i 36 minuts, a les 23:04 UTC
Pronòstic vàlid del 23 a les 00 UTC al 24 a les 06 UTC
Vent 3 kt del Oest
Visibilitat: 3000 m
Núvols disperses a una alçada de 3500 ft
boirina
Probabilitat 40%
l' 23 a les 02 UTC al 23 a les 07 UTC
Visibilitat: 1500 m
Evolucionant progressivament
l' 23 a les 08 UTC al 23 a les 10 UTC
Vent 8 kt del Est/Sud-Est
Visibilitat: 6000 m
Núvols disperses a una alçada de 3000 ft

TAF: OJAM 222304Z 2300/2406 26003KT 3000 BR SCT035 PROB40 2302/2307 1500 BECMG 2308/2310 12008KT 6000 SCT030

Observacions i pronòstics meteorològics de més de 4000 aeroports (METAR i TAF).

Les estacions disponibles són els punts grocs i vermells al mapa.

Posi el ratolí al punt desitjat per veure el nom de l'estació.

Feu clic per veure les observacions i els pronòstics meteorològics.

Per canviar el mapa: feu clic els botons verds amb una creu de color negre per apropar; al botó verd amb un guió per allunyar la imatge; o en les fletxes verdes per a mapes adjacents.


METAR-TAF: